Time;durP1;ratioP1;P1;durP2;ratioP2;P2;SDS_P1;SDS_P2;PMS_P1;PMS_P2;Temp;Humidity;BMP_temperature;BMP_pressure;BME280_temperature;BME280_humidity;BME280_pressure;Samples;Min_cycle;Max_cycle;Signal;HPM_P1;HPM_P2
2023/04/06 00:03:48;;;;;;;16.97;10.23;;;;;6.10;101227.00;;;;10392369;28;20207;-78
2023/04/06 00:08:50;;;;;;;19.43;10.60;;;;;6.10;101219.00;;;;10368394;28;20322;-79
2023/04/06 00:13:52;;;;;;;18.23;10.40;;;;;6.10;101218.00;;;;10375960;28;20868;-78
2023/04/06 00:18:55;;;;;;;18.37;10.27;;;;;6.20;101213.00;;;;10392344;28;20249;-79
2023/04/06 00:23:57;;;;;;;17.60;9.77;;;;;6.30;101214.00;;;;10375885;28;20861;-79
2023/04/06 00:28:59;;;;;;;19.03;10.83;;;;;6.30;101199.00;;;;10378446;28;20242;-79
2023/04/06 00:34:02;;;;;;;16.30;9.67;;;;;6.30;101192.00;;;;10392433;28;20187;-78
2023/04/06 00:39:03;;;;;;;18.07;9.87;;;;;6.30;101195.00;;;;10364807;28;20206;-79
2023/04/06 00:44:06;;;;;;;16.17;8.60;;;;;6.30;101186.00;;;;10409046;28;20210;-78
2023/04/06 00:49:08;;;;;;;17.57;9.90;;;;;6.30;101180.00;;;;10368929;28;20195;-78
2023/04/06 00:54:10;;;;;;;14.50;8.77;;;;;6.30;101175.00;;;;10400530;28;20188;-79
2023/04/06 00:59:13;;;;;;;15.50;9.60;;;;;6.30;101176.00;;;;10354034;28;20897;-78
2023/04/06 01:04:16;;;;;;;18.33;9.80;;;;;6.30;101181.00;;;;10358346;28;20254;-79
2023/04/06 01:09:18;;;;;;;16.70;9.00;;;;;6.30;101166.00;;;;10384266;28;20203;-79
2023/04/06 01:14:22;;;;;;;17.90;9.33;;;;;6.40;101161.00;;;;10385825;28;20213;-79
2023/04/06 01:19:30;;;;;;;14.93;8.20;;;;;6.40;101160.00;;;;10392171;28;20206;-79
2023/04/06 01:24:34;;;;;;;14.57;8.67;;;;;6.50;101150.00;;;;10359582;28;20296;-79
2023/04/06 01:29:42;;;;;;;16.87;8.63;;;;;6.50;101147.00;;;;10392672;28;20715;-78
2023/04/06 01:34:49;;;;;;;13.03;9.47;;;;;6.50;101143.00;;;;10343778;28;20910;-78
2023/04/06 01:39:52;;;;;;;17.20;9.83;;;;;6.50;101135.00;;;;10362419;28;20194;-79
2023/04/06 01:45:08;;;;;;;19.63;10.20;;;;;6.50;101128.00;;;;10373899;28;20236;-78
2023/04/06 01:50:10;;;;;;;14.67;9.73;;;;;6.40;101124.00;;;;10388498;28;20274;-79
2023/04/06 01:55:17;;;;;;;18.30;11.13;;;;;6.40;101127.00;;;;10403239;28;20195;-79
2023/04/06 02:00:45;;;;;;;15.50;9.83;;;;;6.30;101121.00;;;;10372424;28;20202;-78
2023/04/06 02:05:48;;;;;;;15.80;9.90;;;;;6.20;101121.00;;;;10370020;28;20223;-79
2023/04/06 02:10:59;;;;;;;17.67;10.23;;;;;6.10;101117.00;;;;10369268;28;20199;-79
2023/04/06 02:16:10;;;;;;;15.87;10.00;;;;;6.00;101101.00;;;;10372936;28;20290;-79
2023/04/06 02:21:13;;;;;;;18.90;10.30;;;;;5.90;101101.00;;;;10332746;28;20214;-79
2023/04/06 02:26:15;;;;;;;20.83;11.63;;;;;5.80;101100.00;;;;10372556;28;20250;-79
2023/04/06 02:31:17;;;;;;;21.40;11.50;;;;;5.70;101094.00;;;;10333213;28;20666;-78
2023/04/06 02:36:19;;;;;;;20.73;10.80;;;;;5.60;101086.00;;;;10356016;28;20433;-79
2023/04/06 02:41:22;;;;;;;21.30;10.90;;;;;5.60;101081.00;;;;10400295;28;20291;-79
2023/04/06 02:46:24;;;;;;;17.97;9.80;;;;;5.60;101083.00;;;;10353347;28;20210;-78
2023/04/06 02:51:27;;;;;;;18.40;9.70;;;;;5.50;101081.00;;;;10365070;28;20198;-78
2023/04/06 02:56:37;;;;;;;20.23;10.77;;;;;5.30;101082.00;;;;10358931;28;20230;-78
2023/04/06 03:01:39;;;;;;;19.43;10.43;;;;;5.20;101069.00;;;;10389931;28;20330;-79
2023/04/06 03:06:42;;;;;;;19.67;11.27;;;;;5.20;101072.00;;;;10374982;28;20296;-79
2023/04/06 03:11:55;;;;;;;17.10;9.97;;;;;5.10;101070.00;;;;10372063;28;20252;-78
2023/04/06 03:16:58;;;;;;;17.03;9.80;;;;;4.90;101061.00;;;;10370841;28;20261;-79
2023/04/06 03:22:00;;;;;;;17.13;10.63;;;;;4.80;101062.00;;;;10338606;28;20234;-79
2023/04/06 03:27:03;;;;;;;17.70;11.27;;;;;4.70;101056.00;;;;10339727;28;20223;-78
2023/04/06 03:32:06;;;;;;;19.33;11.13;;;;;4.70;101048.00;;;;10355558;28;20867;-78
2023/04/06 03:37:15;;;;;;;21.57;10.63;;;;;4.60;101041.00;;;;10339007;28;20210;-78
2023/04/06 03:42:23;;;;;;;17.67;10.40;;;;;4.50;101046.00;;;;10390514;28;20205;-78
2023/04/06 03:47:38;;;;;;;18.13;10.27;;;;;4.50;101038.00;;;;10409477;28;20221;-78
2023/04/06 03:52:42;;;;;;;17.93;10.80;;;;;4.60;101037.00;;;;10367616;28;20195;-78
2023/04/06 03:57:44;;;;;;;18.07;9.67;;;;;4.60;101032.00;;;;10377916;28;20226;-79
2023/04/06 04:02:46;;;;;;;17.60;10.80;;;;;4.70;101035.00;;;;10370169;28;20183;-79
2023/04/06 04:07:48;;;;;;;20.23;10.77;;;;;4.70;101041.00;;;;10406667;28;20277;-78
2023/04/06 04:12:51;;;;;;;18.93;11.80;;;;;4.80;101033.00;;;;10370539;28;20204;-78
2023/04/06 04:17:53;;;;;;;20.20;10.93;;;;;4.80;101047.00;;;;10421468;28;20201;-78
2023/04/06 04:22:55;;;;;;;17.03;10.57;;;;;4.80;101048.00;;;;10399811;28;20222;-79
2023/04/06 04:27:57;;;;;;;16.93;10.90;;;;;4.90;101043.00;;;;10352700;28;20223;-78
2023/04/06 04:33:00;;;;;;;21.93;11.53;;;;;4.90;101056.00;;;;10315850;28;20206;-78
2023/04/06 04:38:03;;;;;;;26.30;13.27;;;;;5.00;101054.00;;;;10391114;28;20194;-79
2023/04/06 04:43:07;;;;;;;24.10;11.50;;;;;5.10;101056.00;;;;10344723;28;20202;-79
2023/04/06 04:48:10;;;;;;;19.33;11.77;;;;;5.30;101049.00;;;;10374695;28;20582;-79
2023/04/06 04:53:32;;;;;;;17.53;11.50;;;;;5.40;101051.00;;;;10377489;28;20207;-78
2023/04/06 04:58:43;;;;;;;19.00;11.17;;;;;5.50;101046.00;;;;10392086;28;20200;-79
2023/04/06 05:03:46;;;;;;;19.23;10.53;;;;;5.60;101055.00;;;;10357741;28;20208;-78
2023/04/06 05:08:51;;;;;;;19.67;11.53;;;;;5.80;101060.00;;;;10357365;28;20314;-78
2023/04/06 05:13:54;;;;;;;22.53;12.30;;;;;5.90;101042.00;;;;10369138;28;20249;-79
2023/04/06 05:18:59;;;;;;;22.97;11.87;;;;;6.00;101047.00;;;;10342544;28;20199;-78
2023/04/06 05:24:10;;;;;;;20.50;12.47;;;;;6.10;101052.00;;;;10372749;28;20194;-78
2023/04/06 05:29:18;;;;;;;19.80;10.93;;;;;6.20;101051.00;;;;10351396;28;20206;-79
2023/04/06 05:34:20;;;;;;;18.73;12.00;;;;;6.40;101056.00;;;;10378885;28;20625;-78
2023/04/06 05:39:24;;;;;;;18.90;10.87;;;;;6.50;101060.00;;;;10356661;28;20202;-78
2023/04/06 05:44:28;;;;;;;21.23;11.67;;;;;6.60;101057.00;;;;10357348;28;22316;-77
2023/04/06 05:49:41;;;;;;;18.77;11.30;;;;;6.80;101057.00;;;;10361018;28;20191;-78
2023/04/06 05:54:50;;;;;;;17.00;11.70;;;;;7.00;101053.00;;;;10370518;28;20321;-78
2023/04/06 05:59:52;;;;;;;18.57;11.53;;;;;7.10;101055.00;;;;10366260;28;20199;-78
2023/04/06 06:04:56;;;;;;;21.03;12.53;;;;;7.10;101059.00;;;;10357248;28;20321;-78
2023/04/06 06:10:02;;;;;;;22.90;12.80;;;;;7.30;101061.00;;;;10353357;28;20286;-78
2023/04/06 06:15:08;;;;;;;21.63;12.50;;;;;7.40;101062.00;;;;10398906;28;20207;-78
2023/04/06 06:20:15;;;;;;;22.50;13.83;;;;;7.60;101055.00;;;;10370723;28;20198;-78
2023/04/06 06:25:18;;;;;;;26.13;12.17;;;;;7.70;101058.00;;;;10390287;28;20210;-78
2023/04/06 06:30:22;;;;;;;24.43;13.47;;;;;7.90;101065.00;;;;10402588;28;20682;-77
2023/04/06 06:35:26;;;;;;;23.47;12.73;;;;;8.00;101065.00;;;;10366437;28;20870;-78
2023/04/06 06:40:28;;;;;;;20.80;13.10;;;;;8.10;101061.00;;;;10337127;28;20248;-77
2023/04/06 06:45:31;;;;;;;22.57;12.83;;;;;8.20;101066.00;;;;10397148;28;20298;-78
2023/04/06 06:50:33;;;;;;;24.23;13.83;;;;;8.30;101064.00;;;;10344006;28;20234;-78
2023/04/06 06:55:35;;;;;;;21.40;12.00;;;;;8.20;101067.00;;;;10371635;28;20504;-80
2023/04/06 07:00:38;;;;;;;19.43;12.10;;;;;8.10;101062.00;;;;10371816;28;20201;-78
2023/04/06 07:05:52;;;;;;;22.17;11.80;;;;;8.00;101062.00;;;;10356414;28;20219;-78
2023/04/06 07:10:56;;;;;;;19.10;11.43;;;;;8.00;101060.00;;;;10354897;28;20692;-78
2023/04/06 07:15:58;;;;;;;18.97;11.40;;;;;8.00;101055.00;;;;10386804;28;20225;-78
2023/04/06 07:21:02;;;;;;;19.50;12.63;;;;;8.10;101048.00;;;;10359876;28;20221;-77
2023/04/06 07:26:04;;;;;;;21.03;12.57;;;;;8.10;101059.00;;;;10372546;28;20246;-76
2023/04/06 07:31:07;;;;;;;18.60;11.83;;;;;8.00;101058.00;;;;10361630;28;20222;-76
2023/04/06 07:36:09;;;;;;;22.83;13.53;;;;;8.00;101056.00;;;;10368400;28;20210;-76
2023/04/06 07:41:12;;;;;;;18.40;11.20;;;;;8.10;101049.00;;;;10372745;28;20309;-76
2023/04/06 07:46:14;;;;;;;21.80;12.60;;;;;8.30;101052.00;;;;10353118;28;20245;-76
2023/04/06 07:51:17;;;;;;;20.13;13.47;;;;;8.40;101048.00;;;;10362847;28;20191;-76
2023/04/06 07:56:21;;;;;;;17.70;11.67;;;;;8.50;101055.00;;;;10346928;28;20218;-75
2023/04/06 08:01:23;;;;;;;18.47;11.50;;;;;8.60;101051.00;;;;10372328;28;20282;-76
2023/04/06 08:06:26;;;;;;;15.23;9.13;;;;;8.80;101049.00;;;;10371747;28;20242;-75
2023/04/06 08:11:28;;;;;;;13.70;8.17;;;;;8.80;101052.00;;;;10368025;28;20195;-75
2023/04/06 08:16:30;;;;;;;14.27;8.10;;;;;8.60;101050.00;;;;10390088;28;20203;-76
2023/04/06 08:21:33;;;;;;;11.40;8.17;;;;;8.60;101058.00;;;;10364243;28;20187;-76
2023/04/06 08:26:35;;;;;;;14.20;8.10;;;;;8.80;101053.00;;;;10365438;28;20227;-76
2023/04/06 08:31:37;;;;;;;14.13;8.17;;;;;8.90;101062.00;;;;10360935;28;20222;-76
2023/04/06 08:36:41;;;;;;;11.93;7.57;;;;;9.10;101058.00;;;;10346407;28;20206;-76
2023/04/06 08:41:43;;;;;;;17.00;7.80;;;;;9.10;101061.00;;;;10365569;28;20333;-76
2023/04/06 08:46:46;;;;;;;12.03;7.13;;;;;9.00;101058.00;;;;10388662;28;20227;-76
2023/04/06 08:51:49;;;;;;;13.07;8.00;;;;;8.90;101055.00;;;;10383140;28;20832;-77
2023/04/06 08:56:52;;;;;;;10.30;7.13;;;;;8.90;101046.00;;;;10380130;28;20202;-76
2023/04/06 09:01:55;;;;;;;11.23;7.60;;;;;9.30;101053.00;;;;10366843;28;20472;-76
2023/04/06 09:06:57;;;;;;;10.57;8.03;;;;;9.60;101053.00;;;;10371632;28;20214;-76
2023/04/06 09:12:05;;;;;;;10.50;6.97;;;;;9.60;101055.00;;;;10381900;28;20250;-76
2023/04/06 09:17:07;;;;;;;12.90;7.70;;;;;9.60;101056.00;;;;10385822;28;20213;-77
2023/04/06 09:22:09;;;;;;;8.40;6.27;;;;;9.40;101048.00;;;;10385878;28;20209;-77
2023/04/06 09:27:13;;;;;;;12.30;7.40;;;;;9.30;101045.00;;;;10368485;28;20268;-76
2023/04/06 09:32:16;;;;;;;13.77;9.07;;;;;9.50;101040.00;;;;10337792;28;20203;-77
2023/04/06 09:37:19;;;;;;;15.23;8.73;;;;;9.90;101038.00;;;;10371306;28;20206;-76
2023/04/06 09:42:25;;;;;;;15.67;9.07;;;;;9.80;101043.00;;;;10403894;28;20253;-77
2023/04/06 09:47:28;;;;;;;15.17;9.77;;;;;9.70;101026.00;;;;10370297;28;20946;-77
2023/04/06 09:52:38;;;;;;;13.07;8.93;;;;;9.40;101035.00;;;;10381310;28;20712;-77
2023/04/06 09:58:12;;;;;;;13.03;10.33;;;;;9.30;101031.00;;;;10370339;28;20198;-77
2023/04/06 10:03:26;;;;;;;13.93;9.00;;;;;9.10;101020.00;;;;10357599;28;20729;-77
2023/04/06 10:08:31;;;;;;;15.37;8.97;;;;;9.20;101032.00;;;;10399131;28;20219;-77
2023/04/06 10:13:34;;;;;;;15.37;10.40;;;;;9.50;101035.00;;;;10369301;28;20199;-77
2023/04/06 10:18:39;;;;;;;13.57;8.97;;;;;9.50;101030.00;;;;10329118;28;20211;-77
2023/04/06 10:23:53;;;;;;;13.60;7.97;;;;;9.60;101029.00;;;;10373259;28;20225;-77
2023/04/06 10:29:03;;;;;;;12.90;8.60;;;;;9.70;101030.00;;;;10367588;28;20246;-77
2023/04/06 10:34:05;;;;;;;11.80;8.30;;;;;9.90;101027.00;;;;10364241;28;20206;-77
2023/04/06 10:39:08;;;;;;;11.40;8.47;;;;;10.00;101029.00;;;;10361387;28;20597;-77
2023/04/06 10:44:19;;;;;;;12.30;8.30;;;;;10.10;101018.00;;;;10417785;28;20191;-77
2023/04/06 10:49:22;;;;;;;10.73;8.00;;;;;10.10;101023.00;;;;10365171;28;20230;-77
2023/04/06 10:54:28;;;;;;;11.53;8.93;;;;;9.90;101019.00;;;;10385088;28;20201;-77
2023/04/06 10:59:30;;;;;;;16.73;9.97;;;;;10.20;101007.00;;;;10368554;28;20270;-77
2023/04/06 11:04:32;;;;;;;17.00;9.27;;;;;10.50;100999.00;;;;10356502;28;20226;-77
2023/04/06 11:09:36;;;;;;;16.30;10.37;;;;;10.30;100995.00;;;;10375764;28;20245;-77
2023/04/06 11:14:38;;;;;;;15.03;9.90;;;;;10.20;101001.00;;;;10390740;28;20245;-77
2023/04/06 11:19:40;;;;;;;13.40;9.03;;;;;10.10;100993.00;;;;10386444;28;20206;-77
2023/04/06 11:24:42;;;;;;;12.63;9.30;;;;;10.20;100991.00;;;;10388303;28;20227;-77
2023/04/06 11:29:48;;;;;;;13.30;9.50;;;;;10.10;100989.00;;;;10375130;28;20218;-77
2023/04/06 11:34:49;;;;;;;14.80;8.50;;;;;10.30;100978.00;;;;10375768;28;20245;-77
2023/04/06 11:39:54;;;;;;;15.23;10.23;;;;;10.30;100983.00;;;;10334630;28;20261;-77
2023/04/06 11:44:57;;;;;;;14.83;9.73;;;;;10.60;100974.00;;;;10370374;28;20850;-78
2023/04/06 11:50:07;;;;;;;12.00;8.83;;;;;10.60;100975.00;;;;10340280;28;20258;-78
2023/04/06 11:55:12;;;;;;;12.00;8.20;;;;;10.80;100978.00;;;;10405466;28;20286;-78
2023/04/06 12:00:15;;;;;;;12.60;9.00;;;;;10.60;100964.00;;;;10383459;28;20246;-78
2023/04/06 12:05:17;;;;;;;11.37;8.60;;;;;10.40;100965.00;;;;10396344;28;20214;-78
2023/04/06 12:10:19;;;;;;;12.40;9.53;;;;;10.60;100965.00;;;;10398808;28;20251;-79
2023/04/06 12:15:21;;;;;;;10.60;6.90;;;;;10.90;100970.00;;;;10415664;28;20233;-79
2023/04/06 12:20:23;;;;;;;12.93;8.53;;;;;10.90;100961.00;;;;10380514;28;20347;-79
2023/04/06 12:25:28;;;;;;;11.30;8.53;;;;;11.10;100954.00;;;;10385051;28;20573;-79
2023/04/06 12:30:32;;;;;;;14.03;8.67;;;;;11.40;100949.00;;;;10382193;28;20281;-79
2023/04/06 12:35:35;;;;;;;9.83;8.00;;;;;11.20;100947.00;;;;10381857;28;20209;-78
2023/04/06 12:40:38;;;;;;;11.40;8.93;;;;;11.10;100946.00;;;;10382691;28;20232;-79
2023/04/06 12:45:41;;;;;;;11.57;8.83;;;;;10.80;100942.00;;;;10368903;28;20812;-78
2023/04/06 12:50:43;;;;;;;12.83;8.70;;;;;10.60;100932.00;;;;10381241;28;20195;-78
2023/04/06 12:55:45;;;;;;;11.40;7.90;;;;;10.60;100929.00;;;;10324920;28;20206;-78
2023/04/06 13:00:48;;;;;;;12.53;7.33;;;;;10.90;100917.00;;;;10390516;28;20199;-78
2023/04/06 13:05:50;;;;;;;8.80;7.40;;;;;10.90;100916.00;;;;10389497;28;20218;-78
2023/04/06 13:10:53;;;;;;;8.83;6.90;;;;;10.50;100920.00;;;;10389796;28;20278;-78
2023/04/06 13:16:02;;;;;;;11.17;7.97;;;;;10.20;100910.00;;;;10354191;28;20209;-78
2023/04/06 13:21:06;;;;;;;11.30;8.07;;;;;10.00;100900.00;;;;10360965;28;20229;-78
2023/04/06 13:26:09;;;;;;;10.23;7.70;;;;;9.80;100891.00;;;;10376284;28;20609;-77
2023/04/06 13:31:11;;;;;;;10.97;7.93;;;;;9.80;100896.00;;;;10386906;28;20203;-77
2023/04/06 13:36:13;;;;;;;12.37;9.10;;;;;10.00;100897.00;;;;10371485;28;20234;-78
2023/04/06 13:41:20;;;;;;;15.40;8.77;;;;;10.00;100892.00;;;;10386480;28;20203;-78
2023/04/06 13:46:23;;;;;;;12.13;9.20;;;;;10.00;100885.00;;;;10372546;28;20285;-78
2023/04/06 13:51:26;;;;;;;14.20;9.30;;;;;10.00;100875.00;;;;10388503;28;20199;-77
2023/04/06 13:56:28;;;;;;;14.10;9.67;;;;;10.20;100886.00;;;;10378592;28;20202;-78
2023/04/06 14:01:30;;;;;;;12.53;8.97;;;;;10.30;100880.00;;;;10373564;28;20202;-78
2023/04/06 14:06:33;;;;;;;14.83;10.90;;;;;10.50;100877.00;;;;10374358;28;20222;-78
2023/04/06 14:11:36;;;;;;;15.73;10.47;;;;;10.80;100868.00;;;;10352468;28;20227;-77
2023/04/06 14:16:38;;;;;;;12.73;9.40;;;;;10.40;100865.00;;;;10403656;28;20496;-78
2023/04/06 14:21:44;;;;;;;11.17;9.37;;;;;10.30;100862.00;;;;10390822;28;20206;-78
2023/04/06 14:26:46;;;;;;;13.43;9.43;;;;;10.40;100859.00;;;;10418218;28;20221;-78
2023/04/06 14:31:48;;;;;;;13.17;9.43;;;;;10.40;100849.00;;;;10377279;28;20294;-78
2023/04/06 14:36:50;;;;;;;12.93;8.97;;;;;10.30;100850.00;;;;10354992;28;20219;-78
2023/04/06 14:41:52;;;;;;;11.27;8.67;;;;;10.10;100845.00;;;;10371295;28;20202;-78
2023/04/06 14:46:55;;;;;;;12.07;9.17;;;;;10.20;100844.00;;;;10372190;28;20245;-78
2023/04/06 14:51:57;;;;;;;13.60;9.50;;;;;10.70;100838.00;;;;10374984;28;20705;-77
2023/04/06 14:57:00;;;;;;;13.33;9.63;;;;;10.60;100844.00;;;;10351257;28;20289;-77
2023/04/06 15:02:03;;;;;;;13.60;9.60;;;;;10.60;100839.00;;;;10355060;28;20563;-77
2023/04/06 15:07:05;;;;;;;13.50;9.63;;;;;10.60;100835.00;;;;10399905;28;20249;-77
2023/04/06 15:12:07;;;;;;;20.90;11.67;;;;;10.70;100827.00;;;;10350499;28;20199;-77
2023/04/06 15:17:09;;;;;;;14.27;11.27;;;;;10.80;100831.00;;;;10378682;28;20285;-77
2023/04/06 15:22:11;;;;;;;12.37;10.37;;;;;10.80;100828.00;;;;10400879;28;20193;-77
2023/04/06 15:27:13;;;;;;;16.53;11.77;;;;;10.90;100829.00;;;;10337838;28;20218;-77
2023/04/06 15:32:15;;;;;;;19.10;12.07;;;;;10.80;100824.00;;;;10374137;28;20187;-77
2023/04/06 15:37:18;;;;;;;17.43;12.50;;;;;10.50;100824.00;;;;10343007;28;20199;-77
2023/04/06 15:42:20;;;;;;;15.77;11.57;;;;;10.50;100820.00;;;;10401682;28;20433;-77
2023/04/06 15:47:22;;;;;;;16.03;12.00;;;;;10.70;100825.00;;;;10368261;28;20242;-77
2023/04/06 15:52:24;;;;;;;16.63;13.33;;;;;11.30;100819.00;;;;10387488;28;20257;-77
2023/04/06 15:57:26;;;;;;;21.07;12.03;;;;;11.40;100831.00;;;;10365112;28;20196;-77
2023/04/06 16:02:28;;;;;;;16.60;13.03;;;;;11.20;100822.00;;;;10358511;28;20283;-77
2023/04/06 16:07:31;;;;;;;24.80;14.50;;;;;10.90;100829.00;;;;10378784;28;20223;-77
2023/04/06 16:12:33;;;;;;;19.17;12.47;;;;;10.90;100821.00;;;;10358349;28;20866;-77
2023/04/06 16:17:35;;;;;;;22.57;13.77;;;;;10.80;100821.00;;;;10376025;28;20203;-78
2023/04/06 16:22:37;;;;;;;17.40;12.60;;;;;10.60;100819.00;;;;10373970;28;20223;-78
2023/04/06 16:27:39;;;;;;;19.07;12.83;;;;;10.50;100813.00;;;;10370422;28;20850;-77
2023/04/06 16:32:42;;;;;;;16.83;13.40;;;;;10.40;100817.00;;;;10381143;28;20299;-78
2023/04/06 16:37:45;;;;;;;17.20;13.57;;;;;10.30;100810.00;;;;10350859;28;20305;-77
2023/04/06 16:42:47;;;;;;;19.40;14.23;;;;;10.20;100800.00;;;;10354070;28;20193;-77
2023/04/06 16:47:49;;;;;;;22.93;15.47;;;;;10.30;100809.00;;;;10347324;28;20351;-77
2023/04/06 16:52:51;;;;;;;20.37;14.40;;;;;10.40;100803.00;;;;10385261;28;20200;-77
2023/04/06 16:57:55;;;;;;;22.23;15.07;;;;;10.60;100807.00;;;;10378546;28;20294;-77
2023/04/06 17:02:57;;;;;;;23.77;15.53;;;;;10.50;100810.00;;;;10370429;28;20294;-77
2023/04/06 17:07:59;;;;;;;22.47;15.40;;;;;10.40;100808.00;;;;10349497;28;20250;-76
2023/04/06 17:13:01;;;;;;;27.17;14.70;;;;;10.30;100801.00;;;;10387890;28;20231;-76
2023/04/06 17:18:03;;;;;;;21.00;15.90;;;;;10.30;100803.00;;;;10352684;28;20205;-76
2023/04/06 17:23:05;;;;;;;21.53;15.20;;;;;10.20;100807.00;;;;10370622;28;20187;-77
2023/04/06 17:28:07;;;;;;;23.50;13.33;;;;;10.20;100801.00;;;;10386057;28;20301;-77
2023/04/06 17:33:11;;;;;;;22.60;10.33;;;;;10.20;100803.00;;;;10347479;28;20206;-77
2023/04/06 17:38:13;;;;;;;17.33;7.90;;;;;10.20;100814.00;;;;10369063;28;20337;-77
2023/04/06 17:43:15;;;;;;;15.67;7.67;;;;;10.10;100814.00;;;;10362616;28;20211;-77
2023/04/06 17:48:18;;;;;;;15.80;7.10;;;;;10.00;100810.00;;;;10379360;28;20221;-76
2023/04/06 17:53:20;;;;;;;23.07;7.47;;;;;9.90;100822.00;;;;10341107;28;20190;-76
2023/04/06 17:58:23;;;;;;;18.83;6.70;;;;;9.80;100811.00;;;;10368713;28;20658;-77
2023/04/06 18:03:24;;;;;;;14.30;6.20;;;;;9.80;100809.00;;;;10383173;28;20289;-77
2023/04/06 18:08:27;;;;;;;14.57;5.60;;;;;9.70;100820.00;;;;10362523;28;20757;-76
2023/04/06 18:13:29;;;;;;;16.23;6.93;;;;;9.70;100831.00;;;;10329406;28;20206;-77
2023/04/06 18:18:31;;;;;;;18.93;6.50;;;;;9.60;100826.00;;;;10368178;28;20199;-77
2023/04/06 18:23:33;;;;;;;14.80;7.00;;;;;9.60;100832.00;;;;10385137;28;20305;-76
2023/04/06 18:28:35;;;;;;;20.03;6.60;;;;;9.60;100835.00;;;;10363862;28;20246;-76
2023/04/06 18:33:37;;;;;;;17.33;7.30;;;;;9.60;100851.00;;;;10335361;28;20207;-76
2023/04/06 18:38:41;;;;;;;25.57;8.00;;;;;9.60;100845.00;;;;10344896;28;20199;-76
2023/04/06 18:43:43;;;;;;;20.67;8.13;;;;;9.60;100853.00;;;;10383959;28;20236;-77
2023/04/06 18:48:45;;;;;;;25.23;8.43;;;;;9.60;100859.00;;;;10330250;28;20215;-77
2023/04/06 18:53:47;;;;;;;20.07;9.53;;;;;9.50;100868.00;;;;10338875;28;20254;-76
2023/04/06 18:58:49;;;;;;;20.60;7.97;;;;;9.50;100861.00;;;;10385481;28;20218;-76
2023/04/06 19:03:52;;;;;;;17.63;6.13;;;;;9.50;100879.00;;;;10359854;28;20196;-76
2023/04/06 19:08:55;;;;;;;15.03;5.47;;;;;9.30;100876.00;;;;10359217;28;20254;-76
2023/04/06 19:13:57;;;;;;;9.80;4.27;;;;;9.20;100876.00;;;;10358005;28;20211;-76
2023/04/06 19:19:00;;;;;;;9.87;4.33;;;;;9.10;100879.00;;;;10398779;28;20254;-76
2023/04/06 19:24:02;;;;;;;6.20;3.53;;;;;9.10;100891.00;;;;10366338;28;20203;-76
2023/04/06 19:29:04;;;;;;;9.37;4.53;;;;;9.10;100881.00;;;;10358723;28;20284;-76
2023/04/06 19:34:06;;;;;;;9.27;5.33;;;;;9.10;100890.00;;;;10351919;28;20203;-76
2023/04/06 19:39:09;;;;;;;9.17;6.20;;;;;9.10;100895.00;;;;10389978;28;20195;-76
2023/04/06 19:44:11;;;;;;;12.20;7.57;;;;;9.10;100904.00;;;;10373287;28;20250;-77
2023/04/06 19:49:13;;;;;;;16.37;8.03;;;;;9.10;100904.00;;;;10372783;28;20225;-77
2023/04/06 19:54:15;;;;;;;11.83;8.20;;;;;9.10;100905.00;;;;10377186;28;20227;-77
2023/04/06 19:59:17;;;;;;;14.43;8.67;;;;;9.10;100914.00;;;;10373799;28;20198;-77
2023/04/06 20:04:19;;;;;;;21.47;9.03;;;;;9.10;100916.00;;;;10374421;28;20257;-77
2023/04/06 20:09:21;;;;;;;12.87;8.47;;;;;9.10;100912.00;;;;10391391;28;20269;-77
2023/04/06 20:14:24;;;;;;;13.87;7.63;;;;;9.10;100914.00;;;;10380551;28;20218;-77
2023/04/06 20:19:27;;;;;;;18.80;9.50;;;;;9.10;100930.00;;;;10373333;28;20195;-77
2023/04/06 20:24:30;;;;;;;13.73;8.43;;;;;9.10;100931.00;;;;10401871;28;20421;-77
2023/04/06 20:29:32;;;;;;;19.17;9.40;;;;;9.00;100938.00;;;;10355901;28;20215;-77
2023/04/06 20:34:34;;;;;;;15.10;8.23;;;;;8.90;100942.00;;;;10367537;28;20278;-77
2023/04/06 20:39:36;;;;;;;15.43;7.57;;;;;8.90;100933.00;;;;10360507;28;20198;-77
2023/04/06 20:44:38;;;;;;;15.93;7.53;;;;;8.90;100943.00;;;;10354433;28;20211;-77
2023/04/06 20:49:40;;;;;;;11.20;7.13;;;;;8.90;100956.00;;;;10360933;28;20219;-77
2023/04/06 20:54:42;;;;;;;11.17;7.10;;;;;8.90;100954.00;;;;10379287;28;20226;-77
2023/04/06 20:59:44;;;;;;;14.03;7.00;;;;;8.90;100954.00;;;;10361788;28;20234;-77
2023/04/06 21:04:46;;;;;;;10.27;5.60;;;;;8.90;100971.00;;;;10375444;28;20305;-77
2023/04/06 21:09:49;;;;;;;7.73;4.87;;;;;8.90;100972.00;;;;10380818;28;20215;-77
2023/04/06 21:14:51;;;;;;;9.47;5.17;;;;;8.80;100962.00;;;;10387935;28;20198;-77
2023/04/06 21:19:53;;;;;;;6.53;4.50;;;;;8.80;100967.00;;;;10365854;28;20206;-78
2023/04/06 21:24:55;;;;;;;8.73;5.10;;;;;8.80;100967.00;;;;10387466;28;20194;-77
2023/04/06 21:29:57;;;;;;;8.87;4.70;;;;;8.70;100973.00;;;;10379265;28;20260;-76
2023/04/06 21:34:59;;;;;;;6.13;3.97;;;;;8.70;100980.00;;;;10395251;28;20218;-76
2023/04/06 21:40:02;;;;;;;7.37;4.53;;;;;8.60;100965.00;;;;10362758;28;20326;-76
2023/04/06 21:45:05;;;;;;;13.57;6.60;;;;;8.60;100968.00;;;;10349413;28;20486;-76
2023/04/06 21:50:07;;;;;;;17.57;8.40;;;;;8.50;100975.00;;;;10377802;28;20237;-76
2023/04/06 21:55:10;;;;;;;11.97;8.30;;;;;8.50;100985.00;;;;10326724;28;20226;-75
2023/04/06 22:00:13;;;;;;;16.50;8.57;;;;;8.50;100979.00;;;;10383295;28;20190;-76
2023/04/06 22:05:17;;;;;;;16.47;9.50;;;;;8.50;100992.00;;;;10392878;28;20205;-76
2023/04/06 22:10:19;;;;;;;21.53;10.33;;;;;8.50;100985.00;;;;10382606;28;20242;-76
2023/04/06 22:15:22;;;;;;;19.20;10.30;;;;;8.50;100984.00;;;;10371899;28;20194;-76
2023/04/06 22:20:23;;;;;;;19.70;9.90;;;;;8.50;100980.00;;;;10351792;28;20736;-76
2023/04/06 22:25:26;;;;;;;15.90;9.67;;;;;8.50;100967.00;;;;10360022;28;20211;-77
2023/04/06 22:30:28;;;;;;;17.20;9.50;;;;;8.50;100986.00;;;;10369125;28;20293;-77
2023/04/06 22:35:29;;;;;;;17.37;10.90;;;;;8.50;100981.00;;;;10353782;28;20209;-77
2023/04/06 22:40:32;;;;;;;15.53;8.57;;;;;8.50;100979.00;;;;10328474;28;20291;-77
2023/04/06 22:45:34;;;;;;;23.07;12.17;;;;;8.40;100978.00;;;;10361049;28;20463;-77
2023/04/06 22:50:36;;;;;;;21.47;11.80;;;;;8.40;100980.00;;;;10367592;28;20245;-77
2023/04/06 22:55:39;;;;;;;23.20;11.43;;;;;8.40;100990.00;;;;10366575;28;20199;-77
2023/04/06 23:00:41;;;;;;;18.10;10.97;;;;;8.40;100984.00;;;;10377534;28;20198;-77
2023/04/06 23:05:43;;;;;;;15.30;9.10;;;;;8.40;100979.00;;;;10381080;28;20241;-77
2023/04/06 23:10:46;;;;;;;20.33;9.63;;;;;8.40;100970.00;;;;10381125;28;20246;-76
2023/04/06 23:15:48;;;;;;;21.20;8.27;;;;;8.30;100969.00;;;;10415428;28;20206;-76
2023/04/06 23:20:50;;;;;;;15.77;8.60;;;;;8.30;100966.00;;;;10349285;28;20198;-77
2023/04/06 23:25:51;;;;;;;19.10;8.23;;;;;8.20;100965.00;;;;10380754;28;20198;-77
2023/04/06 23:30:53;;;;;;;23.27;9.13;;;;;8.20;100969.00;;;;10373935;28;20249;-77
2023/04/06 23:35:55;;;;;;;21.43;9.80;;;;;8.20;100967.00;;;;10384719;28;20294;-77
2023/04/06 23:40:57;;;;;;;20.67;11.20;;;;;8.20;100969.00;;;;10357297;28;20230;-77
2023/04/06 23:46:00;;;;;;;23.70;10.97;;;;;8.20;100978.00;;;;10381910;28;20290;-77
2023/04/06 23:51:02;;;;;;;22.93;11.87;;;;;8.20;100987.00;;;;10396616;28;20627;-77
2023/04/06 23:56:04;;;;;;;22.67;12.07;;;;;8.20;100991.00;;;;10356730;28;20242;-77
